KCMY/CMY METAR and TAF weather

Enter ICAO airport designator
Station Type Date Time Source
KCMY METAR 2019/10/15 09:35 UTC NOAA

KCMY 150935Z AUTO 00000KT 10SM SCT080 03/01 A2983 RMK AO2 T00270014


Station Type Date Time Source
KCMY Decoded METAR 2019/10/15 09:35 UTC NOAA

Sparta, Sparta / Fort McCoy Airport, WI, United States (KCMY) 43-57-30N 090-44-16W
Oct 15, 2019 - 05:35 AM EDT / 2019.10.15 0935 UTC
Wind: Calm:0
Visibility: 10 mile(s):0
Sky conditions: partly cloudy
Temperature: 36.9 F (2.7 C)
Dew Point: 34.5 F (1.4 C)
Relative Humidity: 91%
Pressure (altimeter): 29.83 in. Hg (1010 hPa)
ob: KCMY 150935Z AUTO 00000KT 10SM SCT080 03/01 A2983 RMK AO2 T00270014
cycle: 9

Station Type Date Time Source
KCMY TAF UTC NOAA

Error!

Example: see airport list